sensor_id;sensor_type;location;lat;lon;timestamp;temperature;humidity
15235;DHT22;7720;51.926;4.488;2023-05-07T00:02:19;16.20;99.90
15235;DHT22;7720;51.926;4.488;2023-05-07T00:07:22;16.20;99.90
15235;DHT22;7720;51.926;4.488;2023-05-07T00:12:26;16.20;99.90
15235;DHT22;7720;51.926;4.488;2023-05-07T00:17:31;16.20;99.90
15235;DHT22;7720;51.926;4.488;2023-05-07T00:22:34;16.30;99.90
15235;DHT22;7720;51.926;4.488;2023-05-07T00:27:38;16.30;99.90
15235;DHT22;7720;51.926;4.488;2023-05-07T00:32:42;16.20;99.90
15235;DHT22;7720;51.926;4.488;2023-05-07T00:37:47;16.20;99.90
15235;DHT22;7720;51.926;4.488;2023-05-07T00:42:51;16.20;99.90
15235;DHT22;7720;51.926;4.488;2023-05-07T00:48:00;16.20;99.90
15235;DHT22;7720;51.926;4.488;2023-05-07T00:53:04;16.20;99.90
15235;DHT22;7720;51.926;4.488;2023-05-07T00:58:08;16.20;99.90
15235;DHT22;7720;51.926;4.488;2023-05-07T01:03:13;16.20;99.90
15235;DHT22;7720;51.926;4.488;2023-05-07T01:08:18;16.20;99.90
15235;DHT22;7720;51.926;4.488;2023-05-07T01:13:21;16.20;99.90
15235;DHT22;7720;51.926;4.488;2023-05-07T01:18:27;16.20;99.90
15235;DHT22;7720;51.926;4.488;2023-05-07T01:23:34;16.20;99.90
15235;DHT22;7720;51.926;4.488;2023-05-07T01:28:38;16.20;99.90
15235;DHT22;7720;51.926;4.488;2023-05-07T01:33:43;16.20;99.90
15235;DHT22;7720;51.926;4.488;2023-05-07T01:38:49;16.10;99.90
15235;DHT22;7720;51.926;4.488;2023-05-07T01:43:56;16.10;99.90
15235;DHT22;7720;51.926;4.488;2023-05-07T01:49:00;16.10;99.90
15235;DHT22;7720;51.926;4.488;2023-05-07T01:54:05;16.10;99.90
15235;DHT22;7720;51.926;4.488;2023-05-07T01:59:10;16.10;99.90
15235;DHT22;7720;51.926;4.488;2023-05-07T02:04:16;16.10;99.90
15235;DHT22;7720;51.926;4.488;2023-05-07T02:09:21;16.20;99.90
15235;DHT22;7720;51.926;4.488;2023-05-07T02:14:26;16.20;99.90
15235;DHT22;7720;51.926;4.488;2023-05-07T02:19:29;16.20;99.90
15235;DHT22;7720;51.926;4.488;2023-05-07T02:24:34;16.10;99.90
15235;DHT22;7720;51.926;4.488;2023-05-07T02:29:38;16.10;99.90
15235;DHT22;7720;51.926;4.488;2023-05-07T02:34:42;16.10;99.90
15235;DHT22;7720;51.926;4.488;2023-05-07T02:39:46;16.10;99.90
15235;DHT22;7720;51.926;4.488;2023-05-07T02:44:50;16.10;99.90
15235;DHT22;7720;51.926;4.488;2023-05-07T02:49:53;16.10;99.90
15235;DHT22;7720;51.926;4.488;2023-05-07T02:54:58;16.10;99.90
15235;DHT22;7720;51.926;4.488;2023-05-07T03:00:10;16.10;99.90
15235;DHT22;7720;51.926;4.488;2023-05-07T03:05:18;16.00;99.90
15235;DHT22;7720;51.926;4.488;2023-05-07T03:10:23;16.10;99.90
15235;DHT22;7720;51.926;4.488;2023-05-07T03:15:27;16.10;99.90
15235;DHT22;7720;51.926;4.488;2023-05-07T03:20:30;16.00;99.90
15235;DHT22;7720;51.926;4.488;2023-05-07T03:25:35;16.00;99.90
15235;DHT22;7720;51.926;4.488;2023-05-07T03:30:39;16.10;99.90
15235;DHT22;7720;51.926;4.488;2023-05-07T03:35:42;16.00;99.90
15235;DHT22;7720;51.926;4.488;2023-05-07T03:40:50;15.90;99.90
15235;DHT22;7720;51.926;4.488;2023-05-07T03:45:54;16.00;99.90
15235;DHT22;7720;51.926;4.488;2023-05-07T03:51:00;15.90;99.90
15235;DHT22;7720;51.926;4.488;2023-05-07T03:56:08;16.00;99.90
15235;DHT22;7720;51.926;4.488;2023-05-07T04:01:14;16.00;99.90
15235;DHT22;7720;51.926;4.488;2023-05-07T04:06:18;16.00;99.90
15235;DHT22;7720;51.926;4.488;2023-05-07T04:11:25;16.00;99.90
15235;DHT22;7720;51.926;4.488;2023-05-07T04:16:29;16.00;99.90
15235;DHT22;7720;51.926;4.488;2023-05-07T04:21:33;16.00;99.90
15235;DHT22;7720;51.926;4.488;2023-05-07T04:26:38;16.00;99.90
15235;DHT22;7720;51.926;4.488;2023-05-07T04:31:43;16.00;99.90
15235;DHT22;7720;51.926;4.488;2023-05-07T04:36:47;16.00;99.90
15235;DHT22;7720;51.926;4.488;2023-05-07T04:41:53;16.00;99.90
15235;DHT22;7720;51.926;4.488;2023-05-07T04:46:57;16.00;99.90
15235;DHT22;7720;51.926;4.488;2023-05-07T04:52:01;16.00;99.90
15235;DHT22;7720;51.926;4.488;2023-05-07T04:57:08;16.10;99.90
15235;DHT22;7720;51.926;4.488;2023-05-07T05:02:11;16.00;99.90
15235;DHT22;7720;51.926;4.488;2023-05-07T05:07:15;16.10;99.90
15235;DHT22;7720;51.926;4.488;2023-05-07T05:12:19;16.10;99.90
15235;DHT22;7720;51.926;4.488;2023-05-07T05:17:23;16.10;99.90
15235;DHT22;7720;51.926;4.488;2023-05-07T05:22:27;16.10;99.90
15235;DHT22;7720;51.926;4.488;2023-05-07T05:27:34;16.10;99.90
15235;DHT22;7720;51.926;4.488;2023-05-07T05:32:39;16.10;99.90
15235;DHT22;7720;51.926;4.488;2023-05-07T05:37:42;16.10;99.90
15235;DHT22;7720;51.926;4.488;2023-05-07T05:42:47;16.20;99.90
15235;DHT22;7720;51.926;4.488;2023-05-07T05:47:52;16.20;99.90
15235;DHT22;7720;51.926;4.488;2023-05-07T05:52:55;16.20;99.90
15235;DHT22;7720;51.926;4.488;2023-05-07T05:58:04;16.20;99.90
15235;DHT22;7720;51.926;4.488;2023-05-07T06:03:11;16.10;99.90
15235;DHT22;7720;51.926;4.488;2023-05-07T06:08:16;16.10;99.90
15235;DHT22;7720;51.926;4.488;2023-05-07T06:13:22;16.10;99.90
15235;DHT22;7720;51.926;4.488;2023-05-07T06:18:26;16.10;99.90
15235;DHT22;7720;51.926;4.488;2023-05-07T06:23:30;16.10;99.90
15235;DHT22;7720;51.926;4.488;2023-05-07T06:28:36;16.20;99.90
15235;DHT22;7720;51.926;4.488;2023-05-07T06:33:44;16.20;99.90
15235;DHT22;7720;51.926;4.488;2023-05-07T06:38:49;16.20;99.90
15235;DHT22;7720;51.926;4.488;2023-05-07T06:43:54;16.40;99.90
15235;DHT22;7720;51.926;4.488;2023-05-07T13:24:18;20.60;99.90
15235;DHT22;7720;51.926;4.488;2023-05-07T13:29:21;20.40;99.90
15235;DHT22;7720;51.926;4.488;2023-05-07T13:34:30;20.20;99.90
15235;DHT22;7720;51.926;4.488;2023-05-07T13:39:35;20.00;99.90
15235;DHT22;7720;51.926;4.488;2023-05-07T13:44:38;20.00;99.90
15235;DHT22;7720;51.926;4.488;2023-05-07T13:49:42;19.80;99.90
15235;DHT22;7720;51.926;4.488;2023-05-07T13:54:48;19.80;99.90
15235;DHT22;7720;51.926;4.488;2023-05-07T13:59:54;19.70;99.90
15235;DHT22;7720;51.926;4.488;2023-05-07T14:04:57;19.60;99.90
15235;DHT22;7720;51.926;4.488;2023-05-07T14:10:04;19.50;99.90
15235;DHT22;7720;51.926;4.488;2023-05-07T14:15:09;19.50;99.90
15235;DHT22;7720;51.926;4.488;2023-05-07T14:20:13;19.40;99.90
15235;DHT22;7720;51.926;4.488;2023-05-07T14:31:24;19.20;99.90
15235;DHT22;7720;51.926;4.488;2023-05-07T14:43:31;19.20;99.90
15235;DHT22;7720;51.926;4.488;2023-05-07T14:48:35;19.20;99.90
15235;DHT22;7720;51.926;4.488;2023-05-07T14:53:40;19.00;99.90
15235;DHT22;7720;51.926;4.488;2023-05-07T14:58:47;19.00;99.90
15235;DHT22;7720;51.926;4.488;2023-05-07T15:03:52;19.00;99.90
15235;DHT22;7720;51.926;4.488;2023-05-07T15:08:56;19.10;99.90
15235;DHT22;7720;51.926;4.488;2023-05-07T15:13:59;19.00;99.90
15235;DHT22;7720;51.926;4.488;2023-05-07T15:19:04;19.00;99.90
15235;DHT22;7720;51.926;4.488;2023-05-07T15:24:08;19.00;99.90
15235;DHT22;7720;51.926;4.488;2023-05-07T15:29:11;19.20;99.90
15235;DHT22;7720;51.926;4.488;2023-05-07T15:34:16;19.20;99.90
15235;DHT22;7720;51.926;4.488;2023-05-07T15:39:19;19.10;99.90
15235;DHT22;7720;51.926;4.488;2023-05-07T15:44:25;18.90;99.90
15235;DHT22;7720;51.926;4.488;2023-05-07T15:49:30;18.70;99.90
15235;DHT22;7720;51.926;4.488;2023-05-07T15:54:35;18.70;99.90
15235;DHT22;7720;51.926;4.488;2023-05-07T15:59:39;18.60;99.90
15235;DHT22;7720;51.926;4.488;2023-05-07T16:04:44;18.60;99.90
15235;DHT22;7720;51.926;4.488;2023-05-07T16:09:47;18.60;99.90
15235;DHT22;7720;51.926;4.488;2023-05-07T16:14:51;18.50;99.90
15235;DHT22;7720;51.926;4.488;2023-05-07T16:19:55;18.60;99.90
15235;DHT22;7720;51.926;4.488;2023-05-07T16:25:00;18.40;99.90
15235;DHT22;7720;51.926;4.488;2023-05-07T16:35:09;18.50;99.90
15235;DHT22;7720;51.926;4.488;2023-05-07T16:40:13;18.30;99.90
15235;DHT22;7720;51.926;4.488;2023-05-07T16:45:16;18.20;99.90
15235;DHT22;7720;51.926;4.488;2023-05-07T16:50:21;18.10;99.90
15235;DHT22;7720;51.926;4.488;2023-05-07T16:55:25;17.90;99.90
15235;DHT22;7720;51.926;4.488;2023-05-07T17:00:28;17.80;99.90
15235;DHT22;7720;51.926;4.488;2023-05-07T17:05:52;17.70;99.90
15235;DHT22;7720;51.926;4.488;2023-05-07T17:10:55;17.80;99.90
15235;DHT22;7720;51.926;4.488;2023-05-07T17:15:58;17.90;99.90
15235;DHT22;7720;51.926;4.488;2023-05-07T17:21:03;17.90;99.90
15235;DHT22;7720;51.926;4.488;2023-05-07T17:26:10;18.10;99.90
15235;DHT22;7720;51.926;4.488;2023-05-07T17:31:14;18.10;99.90
15235;DHT22;7720;51.926;4.488;2023-05-07T17:36:19;18.10;99.90
15235;DHT22;7720;51.926;4.488;2023-05-07T17:41:22;18.30;99.90
15235;DHT22;7720;51.926;4.488;2023-05-07T17:46:25;18.40;99.90
15235;DHT22;7720;51.926;4.488;2023-05-07T17:51:30;18.40;99.90
15235;DHT22;7720;51.926;4.488;2023-05-07T17:56:53;18.50;99.90
15235;DHT22;7720;51.926;4.488;2023-05-07T18:01:57;18.40;99.90
15235;DHT22;7720;51.926;4.488;2023-05-07T18:07:01;18.50;99.90
15235;DHT22;7720;51.926;4.488;2023-05-07T18:12:05;18.40;99.90
15235;DHT22;7720;51.926;4.488;2023-05-07T18:17:08;18.20;99.90
15235;DHT22;7720;51.926;4.488;2023-05-07T18:22:12;17.90;99.90
15235;DHT22;7720;51.926;4.488;2023-05-07T18:27:16;17.90;99.90
15235;DHT22;7720;51.926;4.488;2023-05-07T18:32:19;17.90;99.90
15235;DHT22;7720;51.926;4.488;2023-05-07T18:37:24;17.80;99.90
15235;DHT22;7720;51.926;4.488;2023-05-07T18:42:27;18.10;99.90
15235;DHT22;7720;51.926;4.488;2023-05-07T18:47:31;18.40;99.90
15235;DHT22;7720;51.926;4.488;2023-05-07T18:52:36;18.10;99.90
15235;DHT22;7720;51.926;4.488;2023-05-07T18:57:39;17.80;99.90
15235;DHT22;7720;51.926;4.488;2023-05-07T19:02:43;17.80;99.90
15235;DHT22;7720;51.926;4.488;2023-05-07T19:07:48;17.80;99.90
15235;DHT22;7720;51.926;4.488;2023-05-07T19:12:51;17.90;99.90
15235;DHT22;7720;51.926;4.488;2023-05-07T19:17:56;18.20;99.90
15235;DHT22;7720;51.926;4.488;2023-05-07T19:23:01;17.90;99.90
15235;DHT22;7720;51.926;4.488;2023-05-07T19:28:04;18.20;99.90
15235;DHT22;7720;51.926;4.488;2023-05-07T19:33:07;18.20;99.90
15235;DHT22;7720;51.926;4.488;2023-05-07T19:38:12;18.10;99.90
15235;DHT22;7720;51.926;4.488;2023-05-07T19:43:15;18.20;99.90
15235;DHT22;7720;51.926;4.488;2023-05-07T19:48:18;18.10;99.90
15235;DHT22;7720;51.926;4.488;2023-05-07T19:53:22;18.10;99.90
15235;DHT22;7720;51.926;4.488;2023-05-07T19:58:26;18.00;99.90
15235;DHT22;7720;51.926;4.488;2023-05-07T20:03:30;18.10;99.90
15235;DHT22;7720;51.926;4.488;2023-05-07T20:08:35;18.00;99.90
15235;DHT22;7720;51.926;4.488;2023-05-07T20:13:38;18.00;99.90
15235;DHT22;7720;51.926;4.488;2023-05-07T20:18:41;17.90;99.90
15235;DHT22;7720;51.926;4.488;2023-05-07T20:23:49;17.90;99.90
15235;DHT22;7720;51.926;4.488;2023-05-07T20:28:57;18.00;99.90
15235;DHT22;7720;51.926;4.488;2023-05-07T20:34:00;17.80;99.90
15235;DHT22;7720;51.926;4.488;2023-05-07T20:39:05;17.80;99.90
15235;DHT22;7720;51.926;4.488;2023-05-07T20:44:09;17.70;99.90
15235;DHT22;7720;51.926;4.488;2023-05-07T20:49:15;17.60;99.90
15235;DHT22;7720;51.926;4.488;2023-05-07T20:54:20;17.60;99.90
15235;DHT22;7720;51.926;4.488;2023-05-07T20:59:24;17.60;99.90
15235;DHT22;7720;51.926;4.488;2023-05-07T21:04:29;17.60;99.90
15235;DHT22;7720;51.926;4.488;2023-05-07T21:09:34;17.60;99.90
15235;DHT22;7720;51.926;4.488;2023-05-07T21:14:38;17.30;99.90
15235;DHT22;7720;51.926;4.488;2023-05-07T21:19:41;17.30;99.90
15235;DHT22;7720;51.926;4.488;2023-05-07T21:24:46;17.20;99.90
15235;DHT22;7720;51.926;4.488;2023-05-07T21:29:49;17.20;99.90
15235;DHT22;7720;51.926;4.488;2023-05-07T21:34:52;17.10;99.90
15235;DHT22;7720;51.926;4.488;2023-05-07T21:39:57;17.00;99.90
15235;DHT22;7720;51.926;4.488;2023-05-07T21:45:00;17.00;99.90
15235;DHT22;7720;51.926;4.488;2023-05-07T21:50:07;17.00;99.90
15235;DHT22;7720;51.926;4.488;2023-05-07T21:55:11;16.90;99.90
15235;DHT22;7720;51.926;4.488;2023-05-07T22:00:15;17.00;99.90
15235;DHT22;7720;51.926;4.488;2023-05-07T22:05:19;17.00;99.90
15235;DHT22;7720;51.926;4.488;2023-05-07T22:10:24;17.00;99.90
15235;DHT22;7720;51.926;4.488;2023-05-07T22:15:27;17.00;99.90
15235;DHT22;7720;51.926;4.488;2023-05-07T22:20:31;16.90;99.90
15235;DHT22;7720;51.926;4.488;2023-05-07T22:25:35;16.80;99.90
15235;DHT22;7720;51.926;4.488;2023-05-07T22:30:39;16.90;99.90
15235;DHT22;7720;51.926;4.488;2023-05-07T22:35:42;17.00;99.90
15235;DHT22;7720;51.926;4.488;2023-05-07T22:40:47;16.90;99.90
15235;DHT22;7720;51.926;4.488;2023-05-07T22:45:56;16.60;99.90
15235;DHT22;7720;51.926;4.488;2023-05-07T22:51:00;16.60;99.90
15235;DHT22;7720;51.926;4.488;2023-05-07T22:56:06;16.60;99.90
15235;DHT22;7720;51.926;4.488;2023-05-07T23:01:10;16.60;99.90
15235;DHT22;7720;51.926;4.488;2023-05-07T23:06:14;16.60;99.90
15235;DHT22;7720;51.926;4.488;2023-05-07T23:11:19;16.80;99.90
15235;DHT22;7720;51.926;4.488;2023-05-07T23:16:23;16.70;99.90
15235;DHT22;7720;51.926;4.488;2023-05-07T23:21:26;16.60;99.90
15235;DHT22;7720;51.926;4.488;2023-05-07T23:26:31;16.50;99.90
15235;DHT22;7720;51.926;4.488;2023-05-07T23:31:34;16.40;99.90
15235;DHT22;7720;51.926;4.488;2023-05-07T23:36:37;16.30;99.90
